Endeavour — C6BE4 — position and weather

sailwx.info

Track history (hours):
 
Tides and Currents Weather Stations Pressure Air Temp Water Temp Dewpoint Dewpoint Depression Visibility Wind Speed Wind Dir Waves Ship Positions

Endeavour

Operator: Lindblad Expeditions

Last reported at 2019-Feb-08 15:42 UTC. Time now 2019-Feb-16 03:26 UTC.
Position S 29°44' E 031°26'.

Length 190 m; draft 12.5 m.

Type: Cargo ship. MMSI: 311000239.

Date/timePositionNaut miles runAvg speedWind from/ knotsBaromVisibWave heightAir tempDewpointWater temp
2019-Feb-08 15:42S 29°44' E 031°26'210.2
2019-Feb-08 15:28S 29°45' E 031°24'4 9.3
2019-Feb-08 15:00S 29°47' E 031°19'4 8.4
2019-Feb-08 14:30S 29°48' E 031°15'4 8.5
2019-Feb-08 14:00S 29°49' E 031°10'4 8.4
2019-Feb-08 13:30S 29°51' E 031°05'3 6.4
2019-Feb-08 13:00S 29°53' E 031°02'0 0.0
2019-Feb-07 23:20S 29°52' E 031°02'0 0.0
2019-Feb-07 22:21S 29°52' E 031°02'1 1.4
2019-Feb-07 21:58S 29°53' E 031°03'4 8.1
2019-Feb-07 21:30S 29°50' E 031°06'3 6.5
2019-Feb-07 21:00S 29°47' E 031°08'4 7.5
2019-Feb-07 20:30S 29°45' E 031°11'1 2.6
2019-Feb-07 19:58S 29°43' E 031°11'0 0.2
2019-Feb-07 19:28S 29°43' E 031°11'0 0.0
2019-Feb-07 18:25S 29°43' E 031°11'0 0.1
2019-Feb-07 18:01S 29°43' E 031°11'0 0.0
2019-Feb-07 17:27S 29°43' E 031°11'0 0.0
2019-Feb-07 17:00S 29°43' E 031°11'0 0.1
2019-Feb-07 16:31S 29°43' E 031°11'0 0.0
2019-Feb-07 16:00S 29°43' E 031°11'0 0.0
2019-Feb-07 15:31S 29°43' E 031°11'0 0.0
2019-Feb-07 15:01S 29°43' E 031°11'0 0.1
2019-Feb-07 14:31S 29°43' E 031°11'0 0.1
2019-Feb-07 14:00S 29°43' E 031°11'0 0.1
2019-Feb-07 13:28S 29°43' E 031°11'0 0.0
2019-Feb-07 13:00S 29°43' E 031°11'0 0.0
2019-Feb-07 12:30S 29°43' E 031°11'0 0.0
2019-Feb-07 11:55S 29°43' E 031°11'0 0.0
2019-Feb-07 11:27S 29°43' E 031°11'0 0.0
2019-Feb-07 11:01S 29°43' E 031°11'0 0.0
2019-Feb-07 10:21S 29°43' E 031°11'0 0.0
2019-Feb-07 09:52S 29°43' E 031°11'0 0.1
2019-Feb-07 09:30S 29°43' E 031°11'1 1.0
2019-Feb-07 09:00S 29°44' E 031°12'2 4.0
2019-Feb-07 08:31S 29°46' E 031°13'612.8
2019-Feb-07 08:00S 29°52' E 031°12'  
2019-Feb-04 11:40S 35°27' E 018°52'211.1
2019-Feb-04 11:28S 35°28' E 018°50'611.5
2019-Feb-04 10:55S 35°28' E 018°42'1111.9
2019-Feb-04 10:00S 35°31' E 018°29'  
Track history (hours):
 
Tides and Currents Weather Stations Pressure Air Temp Water Temp Dewpoint Dewpoint Depression Visibility Wind Speed Wind Dir Waves Ship Positions

Endeavour

Operator: Lindblad Expeditions

Last reported at 2019-Feb-08 15:42 UTC. Time now 2019-Feb-16 03:26 UTC.
Position S 29°44' E 031°26'.

Length 190 m; draft 12.5 m.

Type: Cargo ship. MMSI: 311000239.

Date/timePositionNaut miles runAvg speedWind from/ knotsBaromVisibWave heightAir tempDewpointWater temp
2019-Feb-08 15:42S 29°44' E 031°26'210.2
2019-Feb-08 15:28S 29°45' E 031°24'4 9.3
2019-Feb-08 15:00S 29°47' E 031°19'4 8.4
2019-Feb-08 14:30S 29°48' E 031°15'4 8.5
2019-Feb-08 14:00S 29°49' E 031°10'4 8.4
2019-Feb-08 13:30S 29°51' E 031°05'3 6.4
2019-Feb-08 13:00S 29°53' E 031°02'0 0.0
2019-Feb-07 23:20S 29°52' E 031°02'0 0.0
2019-Feb-07 22:21S 29°52' E 031°02'1 1.4
2019-Feb-07 21:58S 29°53' E 031°03'4 8.1
2019-Feb-07 21:30S 29°50' E 031°06'3 6.5
2019-Feb-07 21:00S 29°47' E 031°08'4 7.5
2019-Feb-07 20:30S 29°45' E 031°11'1 2.6
2019-Feb-07 19:58S 29°43' E 031°11'0 0.2
2019-Feb-07 19:28S 29°43' E 031°11'0 0.0
2019-Feb-07 18:25S 29°43' E 031°11'0 0.1
2019-Feb-07 18:01S 29°43' E 031°11'0 0.0
2019-Feb-07 17:27S 29°43' E 031°11'0 0.0
2019-Feb-07 17:00S 29°43' E 031°11'0 0.1
2019-Feb-07 16:31S 29°43' E 031°11'0 0.0
2019-Feb-07 16:00S 29°43' E 031°11'0 0.0
2019-Feb-07 15:31S 29°43' E 031°11'0 0.0
2019-Feb-07 15:01S 29°43' E 031°11'0 0.1
2019-Feb-07 14:31S 29°43' E 031°11'0 0.1
2019-Feb-07 14:00S 29°43' E 031°11'0 0.1
2019-Feb-07 13:28S 29°43' E 031°11'0 0.0
2019-Feb-07 13:00S 29°43' E 031°11'0 0.0
2019-Feb-07 12:30S 29°43' E 031°11'0 0.0
2019-Feb-07 11:55S 29°43' E 031°11'0 0.0
2019-Feb-07 11:27S 29°43' E 031°11'0 0.0
2019-Feb-07 11:01S 29°43' E 031°11'0 0.0
2019-Feb-07 10:21S 29°43' E 031°11'0 0.0
2019-Feb-07 09:52S 29°43' E 031°11'0 0.1
2019-Feb-07 09:30S 29°43' E 031°11'1 1.0
2019-Feb-07 09:00S 29°44' E 031°12'2 4.0
2019-Feb-07 08:31S 29°46' E 031°13'612.8
2019-Feb-07 08:00S 29°52' E 031°12'  
2019-Feb-04 11:40S 35°27' E 018°52'211.1
2019-Feb-04 11:28S 35°28' E 018°50'611.5
2019-Feb-04 10:55S 35°28' E 018°42'1111.9
2019-Feb-04 10:00S 35°31' E 018°29'  

Dump ship's entire track history